sensor_id;sensor_type;location;lat;lon;timestamp;pressure;altitude;pressure_sealevel;temperature;humidity
22333;BME280;11334;36.986;-121.936;2023-08-06T00:00:55;101036.00;;;30.81;39.18
22333;BME280;11334;36.986;-121.936;2023-08-06T00:03:21;101048.09;;;30.70;38.93
22333;BME280;11334;36.986;-121.936;2023-08-06T00:05:48;101040.97;;;30.74;39.52
22333;BME280;11334;36.986;-121.936;2023-08-06T00:08:14;101039.59;;;30.76;38.88
22333;BME280;11334;36.986;-121.936;2023-08-06T00:10:40;101039.44;;;30.38;39.56
22333;BME280;11334;36.986;-121.936;2023-08-06T00:13:07;101035.50;;;30.59;38.93
22333;BME280;11334;36.986;-121.936;2023-08-06T00:15:33;101039.63;;;30.56;39.39
22333;BME280;11334;36.986;-121.936;2023-08-06T00:17:59;101043.41;;;30.80;39.46
22333;BME280;11334;36.986;-121.936;2023-08-06T00:20:26;101041.75;;;30.84;38.96
22333;BME280;11334;36.986;-121.936;2023-08-06T00:22:52;101029.00;;;31.08;39.03
22333;BME280;11334;36.986;-121.936;2023-08-06T00:25:18;101036.69;;;31.06;38.15
22333;BME280;11334;36.986;-121.936;2023-08-06T00:27:45;101034.44;;;31.17;38.16
22333;BME280;11334;36.986;-121.936;2023-08-06T00:30:11;101041.78;;;30.79;38.26
22333;BME280;11334;36.986;-121.936;2023-08-06T00:32:37;101038.50;;;31.30;37.42
22333;BME280;11334;36.986;-121.936;2023-08-06T00:35:04;101033.22;;;31.43;38.12
22333;BME280;11334;36.986;-121.936;2023-08-06T00:37:30;101036.22;;;31.42;38.28
22333;BME280;11334;36.986;-121.936;2023-08-06T00:39:56;101039.88;;;31.65;37.66
22333;BME280;11334;36.986;-121.936;2023-08-06T00:42:23;101041.47;;;31.71;37.72
22333;BME280;11334;36.986;-121.936;2023-08-06T00:44:49;101038.25;;;31.97;37.08
22333;BME280;11334;36.986;-121.936;2023-08-06T00:47:15;101039.75;;;32.13;36.61
22333;BME280;11334;36.986;-121.936;2023-08-06T00:49:42;101039.66;;;32.23;36.08
22333;BME280;11334;36.986;-121.936;2023-08-06T00:52:09;101036.78;;;32.05;36.49
22333;BME280;11334;36.986;-121.936;2023-08-06T00:54:36;101035.78;;;32.52;36.26
22333;BME280;11334;36.986;-121.936;2023-08-06T00:57:03;101031.50;;;32.87;35.40
22333;BME280;11334;36.986;-121.936;2023-08-06T00:59:31;101024.97;;;32.83;35.44
22333;BME280;11334;36.986;-121.936;2023-08-06T01:01:58;101014.00;;;33.02;35.10
22333;BME280;11334;36.986;-121.936;2023-08-06T01:04:24;101020.03;;;33.22;34.97
22333;BME280;11334;36.986;-121.936;2023-08-06T01:09:43;101017.53;;;33.43;34.56
22333;BME280;11334;36.986;-121.936;2023-08-06T01:17:36;101022.34;;;33.51;33.89
22333;BME280;11334;36.986;-121.936;2023-08-06T01:20:03;101025.22;;;33.60;34.17
22333;BME280;11334;36.986;-121.936;2023-08-06T01:22:29;101027.28;;;33.86;33.55
22333;BME280;11334;36.986;-121.936;2023-08-06T01:24:56;101016.97;;;33.78;34.04
22333;BME280;11334;36.986;-121.936;2023-08-06T01:32:30;101025.28;;;33.73;33.82
22333;BME280;11334;36.986;-121.936;2023-08-06T01:35:00;101012.59;;;33.59;33.85
22333;BME280;11334;36.986;-121.936;2023-08-06T01:37:28;101033.53;;;33.55;34.02
22333;BME280;11334;36.986;-121.936;2023-08-06T01:39:55;101025.81;;;33.57;34.15
22333;BME280;11334;36.986;-121.936;2023-08-06T01:42:21;101030.09;;;33.63;34.11
22333;BME280;11334;36.986;-121.936;2023-08-06T01:44:47;101034.59;;;33.22;34.66
22333;BME280;11334;36.986;-121.936;2023-08-06T01:47:14;101042.16;;;33.12;34.47
22333;BME280;11334;36.986;-121.936;2023-08-06T01:49:40;101031.59;;;33.01;34.74
22333;BME280;11334;36.986;-121.936;2023-08-06T01:52:06;101032.25;;;32.93;34.80
22333;BME280;11334;36.986;-121.936;2023-08-06T01:54:33;101033.97;;;32.66;34.95
22333;BME280;11334;36.986;-121.936;2023-08-06T01:56:59;101032.47;;;32.27;35.82
22333;BME280;11334;36.986;-121.936;2023-08-06T01:59:25;101040.06;;;31.46;36.68
22333;BME280;11334;36.986;-121.936;2023-08-06T02:01:52;101037.72;;;30.62;38.29
22333;BME280;11334;36.986;-121.936;2023-08-06T02:04:18;101048.22;;;29.91;40.04
22333;BME280;11334;36.986;-121.936;2023-08-06T02:06:44;101044.59;;;29.22;41.27
22333;BME280;11334;36.986;-121.936;2023-08-06T02:09:11;101053.16;;;28.74;42.50
22333;BME280;11334;36.986;-121.936;2023-08-06T02:11:37;101044.75;;;28.35;42.76
22333;BME280;11334;36.986;-121.936;2023-08-06T02:14:03;101057.34;;;28.00;44.08
22333;BME280;11334;36.986;-121.936;2023-08-06T02:16:30;101059.94;;;27.33;45.48
22333;BME280;11334;36.986;-121.936;2023-08-06T02:18:56;101056.47;;;26.90;46.73
22333;BME280;11334;36.986;-121.936;2023-08-06T02:21:22;101063.84;;;26.52;47.91
22333;BME280;11334;36.986;-121.936;2023-08-06T02:23:48;101062.19;;;26.14;49.16
22333;BME280;11334;36.986;-121.936;2023-08-06T02:26:15;101062.75;;;25.67;50.64
22333;BME280;11334;36.986;-121.936;2023-08-06T02:28:42;101066.66;;;25.43;51.88
22333;BME280;11334;36.986;-121.936;2023-08-06T02:31:08;101060.44;;;25.15;52.32
22333;BME280;11334;36.986;-121.936;2023-08-06T02:33:34;101058.03;;;24.91;54.04
22333;BME280;11334;36.986;-121.936;2023-08-06T02:36:04;101056.22;;;24.58;54.79
22333;BME280;11334;36.986;-121.936;2023-08-06T02:38:32;101059.78;;;24.47;54.95
22333;BME280;11334;36.986;-121.936;2023-08-06T02:40:58;101059.78;;;24.13;56.50
22333;BME280;11334;36.986;-121.936;2023-08-06T02:43:25;101062.16;;;23.87;57.42
22333;BME280;11334;36.986;-121.936;2023-08-06T02:45:51;101048.09;;;23.56;58.69
22333;BME280;11334;36.986;-121.936;2023-08-06T02:48:17;101056.13;;;23.33;59.24
22333;BME280;11334;36.986;-121.936;2023-08-06T02:50:44;101036.91;;;23.23;59.73
22333;BME280;11334;36.986;-121.936;2023-08-06T02:53:10;101055.72;;;23.18;60.25
22333;BME280;11334;36.986;-121.936;2023-08-06T02:55:37;101060.03;;;23.08;60.83
22333;BME280;11334;36.986;-121.936;2023-08-06T02:58:03;101061.03;;;22.96;61.88
22333;BME280;11334;36.986;-121.936;2023-08-06T03:00:29;101051.06;;;22.79;62.17
22333;BME280;11334;36.986;-121.936;2023-08-06T03:02:56;101065.75;;;22.65;63.11
22333;BME280;11334;36.986;-121.936;2023-08-06T03:05:22;101073.66;;;22.49;63.70
22333;BME280;11334;36.986;-121.936;2023-08-06T03:07:48;101067.56;;;22.53;63.48
22333;BME280;11334;36.986;-121.936;2023-08-06T03:10:15;101067.19;;;22.50;63.94
22333;BME280;11334;36.986;-121.936;2023-08-06T03:12:41;101076.88;;;22.39;64.03
22333;BME280;11334;36.986;-121.936;2023-08-06T03:15:08;101079.72;;;22.26;64.80
22333;BME280;11334;36.986;-121.936;2023-08-06T03:17:34;101079.88;;;22.07;65.86
22333;BME280;11334;36.986;-121.936;2023-08-06T03:20:01;101089.59;;;21.90;66.93
22333;BME280;11334;36.986;-121.936;2023-08-06T03:22:27;101092.44;;;21.95;66.22
22333;BME280;11334;36.986;-121.936;2023-08-06T03:24:53;101088.81;;;21.84;67.33
22333;BME280;11334;36.986;-121.936;2023-08-06T03:27:20;101099.88;;;21.76;67.97
22333;BME280;11334;36.986;-121.936;2023-08-06T03:29:49;101086.69;;;21.61;68.17
22333;BME280;11334;36.986;-121.936;2023-08-06T03:32:18;101106.41;;;21.62;67.98
22333;BME280;11334;36.986;-121.936;2023-08-06T03:34:45;101099.06;;;21.45;68.50
22333;BME280;11334;36.986;-121.936;2023-08-06T03:37:11;101101.00;;;21.38;69.19
22333;BME280;11334;36.986;-121.936;2023-08-06T03:39:38;101110.34;;;21.35;69.62
22333;BME280;11334;36.986;-121.936;2023-08-06T03:42:04;101115.78;;;21.23;69.88
22333;BME280;11334;36.986;-121.936;2023-08-06T03:44:30;101121.63;;;21.13;70.39
22333;BME280;11334;36.986;-121.936;2023-08-06T03:46:57;101119.19;;;21.05;70.88
22333;BME280;11334;36.986;-121.936;2023-08-06T03:49:23;101123.53;;;21.00;70.88
22333;BME280;11334;36.986;-121.936;2023-08-06T03:51:50;101138.06;;;20.99;71.05
22333;BME280;11334;36.986;-121.936;2023-08-06T03:54:16;101133.75;;;20.91;71.29
22333;BME280;11334;36.986;-121.936;2023-08-06T03:56:42;101140.03;;;20.73;72.14
22333;BME280;11334;36.986;-121.936;2023-08-06T03:59:08;101136.94;;;20.69;72.33
22333;BME280;11334;36.986;-121.936;2023-08-06T04:01:35;101149.59;;;20.62;72.81
22333;BME280;11334;36.986;-121.936;2023-08-06T04:04:01;101145.25;;;20.61;72.65
22333;BME280;11334;36.986;-121.936;2023-08-06T04:06:27;101141.09;;;20.53;72.98
22333;BME280;11334;36.986;-121.936;2023-08-06T04:08:53;101141.13;;;20.46;73.20
22333;BME280;11334;36.986;-121.936;2023-08-06T04:11:20;101140.50;;;20.38;73.50
22333;BME280;11334;36.986;-121.936;2023-08-06T04:13:46;101148.38;;;20.33;73.87
22333;BME280;11334;36.986;-121.936;2023-08-06T04:16:12;101149.25;;;20.14;74.95
22333;BME280;11334;36.986;-121.936;2023-08-06T04:18:41;101148.41;;;20.14;74.70
22333;BME280;11334;36.986;-121.936;2023-08-06T04:21:07;101149.44;;;20.06;74.82
22333;BME280;11334;36.986;-121.936;2023-08-06T04:23:33;101143.44;;;19.85;76.08
22333;BME280;11334;36.986;-121.936;2023-08-06T04:25:59;101146.31;;;19.84;75.94
22333;BME280;11334;36.986;-121.936;2023-08-06T04:28:26;101155.84;;;19.86;76.38
22333;BME280;11334;36.986;-121.936;2023-08-06T04:30:52;101154.38;;;19.84;76.30
22333;BME280;11334;36.986;-121.936;2023-08-06T04:33:20;101161.22;;;19.80;76.40
22333;BME280;11334;36.986;-121.936;2023-08-06T04:35:46;101151.25;;;19.74;76.57
22333;BME280;11334;36.986;-121.936;2023-08-06T04:38:12;101151.88;;;19.69;77.09
22333;BME280;11334;36.986;-121.936;2023-08-06T04:40:39;101153.53;;;19.70;77.31
22333;BME280;11334;36.986;-121.936;2023-08-06T04:43:05;101150.00;;;19.57;77.98
22333;BME280;11334;36.986;-121.936;2023-08-06T04:45:31;101151.84;;;19.57;78.21
22333;BME280;11334;36.986;-121.936;2023-08-06T04:47:57;101150.00;;;19.57;78.14
22333;BME280;11334;36.986;-121.936;2023-08-06T04:50:24;101154.31;;;19.52;78.17
22333;BME280;11334;36.986;-121.936;2023-08-06T04:52:50;101139.19;;;19.44;78.56
22333;BME280;11334;36.986;-121.936;2023-08-06T04:55:16;101155.97;;;19.46;78.69
22333;BME280;11334;36.986;-121.936;2023-08-06T04:57:42;101157.19;;;19.44;78.73
22333;BME280;11334;36.986;-121.936;2023-08-06T05:00:09;101153.25;;;19.33;79.55
22333;BME280;11334;36.986;-121.936;2023-08-06T05:02:35;101151.16;;;19.29;79.85
22333;BME280;11334;36.986;-121.936;2023-08-06T05:05:04;101159.03;;;19.31;79.54
22333;BME280;11334;36.986;-121.936;2023-08-06T05:07:30;101159.22;;;19.23;79.98
22333;BME280;11334;36.986;-121.936;2023-08-06T05:09:56;101158.97;;;19.11;80.02
22333;BME280;11334;36.986;-121.936;2023-08-06T05:12:23;101153.53;;;19.05;80.61
22333;BME280;11334;36.986;-121.936;2023-08-06T05:14:49;101156.84;;;19.00;80.88
22333;BME280;11334;36.986;-121.936;2023-08-06T05:17:15;101149.00;;;18.99;80.36
22333;BME280;11334;36.986;-121.936;2023-08-06T05:19:41;101163.88;;;19.01;80.32
22333;BME280;11334;36.986;-121.936;2023-08-06T05:22:08;101156.41;;;18.97;80.12
22333;BME280;11334;36.986;-121.936;2023-08-06T05:24:34;101161.56;;;18.92;80.44
22333;BME280;11334;36.986;-121.936;2023-08-06T05:27:00;101155.91;;;18.81;80.88
22333;BME280;11334;36.986;-121.936;2023-08-06T05:29:26;101149.50;;;18.82;81.04
22333;BME280;11334;36.986;-121.936;2023-08-06T05:31:52;101146.78;;;18.75;81.50
22333;BME280;11334;36.986;-121.936;2023-08-06T05:34:19;101148.78;;;18.61;82.13
22333;BME280;11334;36.986;-121.936;2023-08-06T05:36:45;101159.13;;;18.64;82.03
22333;BME280;11334;36.986;-121.936;2023-08-06T05:39:14;101161.56;;;18.59;82.08
22333;BME280;11334;36.986;-121.936;2023-08-06T05:41:41;101163.59;;;18.57;82.12
22333;BME280;11334;36.986;-121.936;2023-08-06T05:44:07;101161.41;;;18.67;81.47
22333;BME280;11334;36.986;-121.936;2023-08-06T05:46:34;101165.91;;;18.60;81.94
22333;BME280;11334;36.986;-121.936;2023-08-06T05:49:00;101154.97;;;18.61;82.33
22333;BME280;11334;36.986;-121.936;2023-08-06T05:51:27;101150.50;;;18.41;82.90
22333;BME280;11334;36.986;-121.936;2023-08-06T05:53:54;101159.81;;;18.45;82.72
22333;BME280;11334;36.986;-121.936;2023-08-06T05:56:20;101166.47;;;18.49;82.85
22333;BME280;11334;36.986;-121.936;2023-08-06T05:58:46;101141.19;;;18.37;82.86
22333;BME280;11334;36.986;-121.936;2023-08-06T06:01:13;101155.66;;;18.42;82.52
22333;BME280;11334;36.986;-121.936;2023-08-06T06:03:39;101160.56;;;18.33;83.14
22333;BME280;11334;36.986;-121.936;2023-08-06T06:06:06;101150.63;;;18.27;83.67
22333;BME280;11334;36.986;-121.936;2023-08-06T06:08:32;101149.56;;;18.21;83.31
22333;BME280;11334;36.986;-121.936;2023-08-06T06:10:59;101154.13;;;18.27;83.69
22333;BME280;11334;36.986;-121.936;2023-08-06T06:13:26;101151.88;;;18.31;83.54
22333;BME280;11334;36.986;-121.936;2023-08-06T06:15:54;101152.22;;;18.21;83.73
22333;BME280;11334;36.986;-121.936;2023-08-06T06:18:22;101152.34;;;18.13;83.60
22333;BME280;11334;36.986;-121.936;2023-08-06T06:20:48;101159.25;;;18.22;83.41
22333;BME280;11334;36.986;-121.936;2023-08-06T06:23:15;101160.47;;;17.99;83.88
22333;BME280;11334;36.986;-121.936;2023-08-06T06:25:47;101162.13;;;18.00;83.92
22333;BME280;11334;36.986;-121.936;2023-08-06T06:28:14;101157.34;;;17.96;83.95
22333;BME280;11334;36.986;-121.936;2023-08-06T06:30:42;101150.72;;;17.92;83.87
22333;BME280;11334;36.986;-121.936;2023-08-06T06:33:09;101152.28;;;17.86;83.09
22333;BME280;11334;36.986;-121.936;2023-08-06T06:35:35;101159.59;;;17.92;83.30
22333;BME280;11334;36.986;-121.936;2023-08-06T06:38:01;101170.25;;;17.86;83.17
22333;BME280;11334;36.986;-121.936;2023-08-06T06:40:28;101166.75;;;17.85;83.59
22333;BME280;11334;36.986;-121.936;2023-08-06T06:42:54;101162.16;;;17.79;83.75
22333;BME280;11334;36.986;-121.936;2023-08-06T06:45:21;101159.16;;;17.68;84.22
22333;BME280;11334;36.986;-121.936;2023-08-06T06:47:47;101169.09;;;17.74;83.82
22333;BME280;11334;36.986;-121.936;2023-08-06T06:50:13;101176.88;;;17.69;84.17
22333;BME280;11334;36.986;-121.936;2023-08-06T06:52:39;101175.31;;;17.74;83.75
22333;BME280;11334;36.986;-121.936;2023-08-06T06:55:06;101179.25;;;17.78;83.42
22333;BME280;11334;36.986;-121.936;2023-08-06T06:57:32;101183.34;;;17.74;83.21
22333;BME280;11334;36.986;-121.936;2023-08-06T06:59:58;101190.09;;;17.71;83.33
22333;BME280;11334;36.986;-121.936;2023-08-06T07:02:25;101182.63;;;17.66;83.65
22333;BME280;11334;36.986;-121.936;2023-08-06T07:04:51;101188.13;;;17.58;83.20
22333;BME280;11334;36.986;-121.936;2023-08-06T07:07:17;101186.25;;;17.59;83.59
22333;BME280;11334;36.986;-121.936;2023-08-06T07:09:44;101193.69;;;17.57;84.29
22333;BME280;11334;36.986;-121.936;2023-08-06T07:12:10;101181.56;;;17.61;84.09
22333;BME280;11334;36.986;-121.936;2023-08-06T07:14:37;101177.97;;;17.54;84.00
22333;BME280;11334;36.986;-121.936;2023-08-06T07:17:04;101177.28;;;17.45;84.85
22333;BME280;11334;36.986;-121.936;2023-08-06T07:19:31;101180.19;;;17.30;85.17
22333;BME280;11334;36.986;-121.936;2023-08-06T07:21:57;101172.25;;;17.22;85.75
22333;BME280;11334;36.986;-121.936;2023-08-06T07:24:23;101177.78;;;17.35;85.78
22333;BME280;11334;36.986;-121.936;2023-08-06T07:26:49;101179.25;;;17.37;85.49
22333;BME280;11334;36.986;-121.936;2023-08-06T07:29:16;101180.81;;;17.32;85.50
22333;BME280;11334;36.986;-121.936;2023-08-06T07:31:47;101181.94;;;17.37;85.60
22333;BME280;11334;36.986;-121.936;2023-08-06T07:34:15;101172.03;;;17.38;84.83
22333;BME280;11334;36.986;-121.936;2023-08-06T07:36:44;101178.91;;;17.26;85.65
22333;BME280;11334;36.986;-121.936;2023-08-06T07:39:11;101175.84;;;17.29;85.61
22333;BME280;11334;36.986;-121.936;2023-08-06T07:41:37;101169.47;;;17.30;85.27
22333;BME280;11334;36.986;-121.936;2023-08-06T07:44:04;101163.25;;;17.29;84.84
22333;BME280;11334;36.986;-121.936;2023-08-06T07:46:30;101157.31;;;17.13;85.27
22333;BME280;11334;36.986;-121.936;2023-08-06T07:48:57;101165.53;;;17.11;85.79
22333;BME280;11334;36.986;-121.936;2023-08-06T07:51:29;101161.84;;;17.12;86.01
22333;BME280;11334;36.986;-121.936;2023-08-06T07:53:55;101158.03;;;17.07;86.23
22333;BME280;11334;36.986;-121.936;2023-08-06T07:56:21;101156.41;;;16.92;87.56
22333;BME280;11334;36.986;-121.936;2023-08-06T07:58:48;101147.16;;;16.94;87.64
22333;BME280;11334;36.986;-121.936;2023-08-06T08:01:14;101147.91;;;17.03;86.98
22333;BME280;11334;36.986;-121.936;2023-08-06T08:03:40;101145.97;;;16.97;87.57
22333;BME280;11334;36.986;-121.936;2023-08-06T08:06:06;101145.41;;;17.01;87.18
22333;BME280;11334;36.986;-121.936;2023-08-06T08:08:33;101152.06;;;16.91;87.77
22333;BME280;11334;36.986;-121.936;2023-08-06T08:10:59;101143.38;;;16.89;87.55
22333;BME280;11334;36.986;-121.936;2023-08-06T08:13:26;101152.72;;;16.93;87.73
22333;BME280;11334;36.986;-121.936;2023-08-06T08:15:59;101138.47;;;16.92;87.34
22333;BME280;11334;36.986;-121.936;2023-08-06T08:18:26;101149.41;;;16.91;87.25
22333;BME280;11334;36.986;-121.936;2023-08-06T08:20:52;101141.75;;;16.88;87.12
22333;BME280;11334;36.986;-121.936;2023-08-06T08:23:18;101143.88;;;16.78;87.15
22333;BME280;11334;36.986;-121.936;2023-08-06T08:25:45;101142.03;;;16.78;87.62
22333;BME280;11334;36.986;-121.936;2023-08-06T08:28:11;101145.25;;;16.74;87.96
22333;BME280;11334;36.986;-121.936;2023-08-06T08:30:37;101150.31;;;16.83;87.16
22333;BME280;11334;36.986;-121.936;2023-08-06T08:33:03;101144.06;;;16.76;87.62
22333;BME280;11334;36.986;-121.936;2023-08-06T08:35:29;101152.47;;;16.74;87.42
22333;BME280;11334;36.986;-121.936;2023-08-06T08:37:56;101142.59;;;16.74;87.22
22333;BME280;11334;36.986;-121.936;2023-08-06T08:40:27;101149.22;;;16.78;86.94
22333;BME280;11334;36.986;-121.936;2023-08-06T08:42:56;101155.13;;;16.74;87.51
22333;BME280;11334;36.986;-121.936;2023-08-06T08:45:26;101155.78;;;16.76;87.46
22333;BME280;11334;36.986;-121.936;2023-08-06T08:47:54;101156.13;;;16.73;87.75
22333;BME280;11334;36.986;-121.936;2023-08-06T08:50:21;101147.75;;;16.76;87.24
22333;BME280;11334;36.986;-121.936;2023-08-06T08:52:50;101151.69;;;16.79;87.23
22333;BME280;11334;36.986;-121.936;2023-08-06T08:55:17;101144.72;;;16.78;87.70
22333;BME280;11334;36.986;-121.936;2023-08-06T08:57:44;101136.69;;;16.78;87.86
22333;BME280;11334;36.986;-121.936;2023-08-06T09:00:10;101128.91;;;16.83;88.18
22333;BME280;11334;36.986;-121.936;2023-08-06T09:02:38;101126.88;;;16.85;87.71
22333;BME280;11334;36.986;-121.936;2023-08-06T09:05:05;101121.97;;;16.89;87.60
22333;BME280;11334;36.986;-121.936;2023-08-06T09:07:41;101121.31;;;16.87;88.82
22333;BME280;11334;36.986;-121.936;2023-08-06T09:10:11;101125.03;;;16.86;89.79
22333;BME280;11334;36.986;-121.936;2023-08-06T09:12:39;101127.50;;;16.87;91.43
22333;BME280;11334;36.986;-121.936;2023-08-06T09:15:06;101128.97;;;16.90;91.58
22333;BME280;11334;36.986;-121.936;2023-08-06T09:17:33;101126.03;;;16.85;92.17
22333;BME280;11334;36.986;-121.936;2023-08-06T09:19:59;101129.28;;;16.80;92.62
22333;BME280;11334;36.986;-121.936;2023-08-06T09:22:36;101130.38;;;16.86;93.86
22333;BME280;11334;36.986;-121.936;2023-08-06T09:25:02;101133.72;;;16.88;93.62
22333;BME280;11334;36.986;-121.936;2023-08-06T09:27:30;101132.84;;;16.87;94.06
22333;BME280;11334;36.986;-121.936;2023-08-06T09:29:56;101135.53;;;16.87;94.56
22333;BME280;11334;36.986;-121.936;2023-08-06T09:32:22;101130.94;;;16.96;94.74
22333;BME280;11334;36.986;-121.936;2023-08-06T09:34:56;101128.41;;;16.94;95.24
22333;BME280;11334;36.986;-121.936;2023-08-06T09:37:22;101129.84;;;16.90;95.28
22333;BME280;11334;36.986;-121.936;2023-08-06T09:39:48;101136.44;;;16.94;95.42
22333;BME280;11334;36.986;-121.936;2023-08-06T09:42:15;101128.97;;;16.90;95.11
22333;BME280;11334;36.986;-121.936;2023-08-06T09:44:41;101127.16;;;16.90;95.35
22333;BME280;11334;36.986;-121.936;2023-08-06T09:47:07;101129.34;;;16.87;95.50
22333;BME280;11334;36.986;-121.936;2023-08-06T09:52:00;101124.47;;;16.90;95.51
22333;BME280;11334;36.986;-121.936;2023-08-06T09:54:27;101119.69;;;16.86;95.28
22333;BME280;11334;36.986;-121.936;2023-08-06T09:56:56;101127.50;;;16.87;95.29
22333;BME280;11334;36.986;-121.936;2023-08-06T09:59:26;101124.56;;;16.82;95.91
22333;BME280;11334;36.986;-121.936;2023-08-06T10:01:54;101132.41;;;16.84;96.12
22333;BME280;11334;36.986;-121.936;2023-08-06T10:04:23;101126.69;;;16.87;96.49
22333;BME280;11334;36.986;-121.936;2023-08-06T10:06:50;101124.56;;;16.82;96.83
22333;BME280;11334;36.986;-121.936;2023-08-06T10:09:17;101126.88;;;16.85;96.90
22333;BME280;11334;36.986;-121.936;2023-08-06T10:11:46;101115.44;;;16.77;96.92
22333;BME280;11334;36.986;-121.936;2023-08-06T10:14:22;101126.50;;;16.88;97.15
22333;BME280;11334;36.986;-121.936;2023-08-06T10:16:51;101116.25;;;16.92;96.93
22333;BME280;11334;36.986;-121.936;2023-08-06T10:19:18;101105.91;;;16.89;97.59
22333;BME280;11334;36.986;-121.936;2023-08-06T10:22:10;101111.72;;;16.92;98.03
22333;BME280;11334;36.986;-121.936;2023-08-06T10:24:53;101113.78;;;16.90;98.17
22333;BME280;11334;36.986;-121.936;2023-08-06T10:30:32;101120.88;;;16.83;98.94
22333;BME280;11334;36.986;-121.936;2023-08-06T10:33:04;101112.47;;;16.86;98.87
22333;BME280;11334;36.986;-121.936;2023-08-06T10:35:34;101111.28;;;16.89;99.37
22333;BME280;11334;36.986;-121.936;2023-08-06T10:38:12;101114.03;;;16.95;98.71
22333;BME280;11334;36.986;-121.936;2023-08-06T10:43:26;101121.03;;;16.96;98.65
22333;BME280;11334;36.986;-121.936;2023-08-06T10:45:54;101111.09;;;16.90;99.25
22333;BME280;11334;36.986;-121.936;2023-08-06T10:48:38;101107.81;;;16.95;98.87
22333;BME280;11334;36.986;-121.936;2023-08-06T10:51:08;101112.19;;;16.96;98.29
22333;BME280;11334;36.986;-121.936;2023-08-06T10:53:35;101110.72;;;16.93;98.42
22333;BME280;11334;36.986;-121.936;2023-08-06T10:56:02;101121.16;;;16.88;99.01
22333;BME280;11334;36.986;-121.936;2023-08-06T10:58:37;101122.63;;;16.91;99.76
22333;BME280;11334;36.986;-121.936;2023-08-06T11:01:04;101119.56;;;16.94;99.60
22333;BME280;11334;36.986;-121.936;2023-08-06T11:03:32;101113.00;;;16.96;99.15
22333;BME280;11334;36.986;-121.936;2023-08-06T11:05:59;101113.00;;;16.96;98.93
22333;BME280;11334;36.986;-121.936;2023-08-06T11:08:26;101099.44;;;16.98;99.33
22333;BME280;11334;36.986;-121.936;2023-08-06T11:10:53;101089.72;;;16.97;99.36
22333;BME280;11334;36.986;-121.936;2023-08-06T11:13:20;101096.69;;;16.91;99.58
22333;BME280;11334;36.986;-121.936;2023-08-06T11:15:47;101109.25;;;16.91;99.25
22333;BME280;11334;36.986;-121.936;2023-08-06T11:18:13;101101.94;;;16.85;99.58
22333;BME280;11334;36.986;-121.936;2023-08-06T11:20:39;101108.41;;;16.90;99.36
22333;BME280;11334;36.986;-121.936;2023-08-06T11:23:06;101105.16;;;16.95;98.37
22333;BME280;11334;36.986;-121.936;2023-08-06T11:25:44;101106.34;;;16.92;98.26
22333;BME280;11334;36.986;-121.936;2023-08-06T11:28:12;101106.34;;;16.92;98.52
22333;BME280;11334;36.986;-121.936;2023-08-06T11:30:38;101111.09;;;16.90;98.91
22333;BME280;11334;36.986;-121.936;2023-08-06T11:33:07;101092.25;;;16.84;98.98
22333;BME280;11334;36.986;-121.936;2023-08-06T11:35:36;101104.06;;;16.89;99.60
22333;BME280;11334;36.986;-121.936;2023-08-06T11:38:03;101099.75;;;16.88;99.52
22333;BME280;11334;36.986;-121.936;2023-08-06T11:40:30;101102.22;;;16.90;99.71
22333;BME280;11334;36.986;-121.936;2023-08-06T11:42:58;101107.13;;;16.86;99.25
22333;BME280;11334;36.986;-121.936;2023-08-06T11:45:24;101111.38;;;16.81;99.00
22333;BME280;11334;36.986;-121.936;2023-08-06T11:47:51;101116.09;;;16.79;98.53
22333;BME280;11334;36.986;-121.936;2023-08-06T11:50:25;101112.13;;;16.75;98.59
22333;BME280;11334;36.986;-121.936;2023-08-06T11:52:57;101120.34;;;16.74;98.18
22333;BME280;11334;36.986;-121.936;2023-08-06T11:55:25;101113.25;;;16.66;98.26
22333;BME280;11334;36.986;-121.936;2023-08-06T11:57:52;101118.72;;;16.58;98.84
22333;BME280;11334;36.986;-121.936;2023-08-06T12:00:18;101118.72;;;16.58;99.83
22333;BME280;11334;36.986;-121.936;2023-08-06T12:02:48;101104.31;;;16.45;100.00
22333;BME280;11334;36.986;-121.936;2023-08-06T12:07:54;101127.91;;;16.70;99.98
22333;BME280;11334;36.986;-121.936;2023-08-06T12:10:24;101121.44;;;16.65;100.00
22333;BME280;11334;36.986;-121.936;2023-08-06T12:12:50;101126.75;;;16.58;100.00
22333;BME280;11334;36.986;-121.936;2023-08-06T12:15:17;101127.44;;;16.67;100.00
22333;BME280;11334;36.986;-121.936;2023-08-06T12:17:43;101130.50;;;16.64;100.00
22333;BME280;11334;36.986;-121.936;2023-08-06T12:20:10;101131.50;;;16.63;100.00
22333;BME280;11334;36.986;-121.936;2023-08-06T12:22:37;101136.13;;;16.54;100.00
22333;BME280;11334;36.986;-121.936;2023-08-06T12:25:10;101142.47;;;16.68;100.00
22333;BME280;11334;36.986;-121.936;2023-08-06T12:27:38;101147.22;;;16.66;100.00
22333;BME280;11334;36.986;-121.936;2023-08-06T12:30:06;101150.22;;;16.63;100.00
22333;BME280;11334;36.986;-121.936;2023-08-06T12:32:33;101147.56;;;16.63;100.00
22333;BME280;11334;36.986;-121.936;2023-08-06T12:35:00;101146.94;;;16.61;100.00
22333;BME280;11334;36.986;-121.936;2023-08-06T12:37:27;101141.88;;;16.66;100.00
22333;BME280;11334;36.986;-121.936;2023-08-06T12:39:53;101144.53;;;16.66;100.00
22333;BME280;11334;36.986;-121.936;2023-08-06T12:42:19;101150.72;;;16.66;100.00
22333;BME280;11334;36.986;-121.936;2023-08-06T12:44:46;101141.75;;;16.59;100.00